PAFA METAR and TAF | Updated Today

PAFA METAR

Fairbanks International Airport

Observation time: 51 min. ago

PAFA 251753Z 05004KT 10SM SCT060 BKN090 BKN110 11/01 A2981 RMK AO2 SLP100 T01110006 10111 20044 55000

Need help? Read our tutorial on how to read METARs or read the parsed version below.

Fairbanks International Airport (PAFA) METAR

  • Weather conditions on Wed, 25 May 2022 17:53:00 +0000 (51 min. ago):
  • Present conditions: Dry
  • Clouds: Scattered at 1829 meters; broken sky at 2743 meters; broken sky at 3353 meters
  • Visibility: 16093 meters
  • Wind: 50 degrees at 4 knots
  • Temperature: 11 celsius
  • Dew point: 1 celsius
  • Pressure: 29.81 inHg
  • Remarks: AO2 SLP100 T01110006 10111 20044 55000


Useful to know...

PAFA TAF

Fairbanks International Airport

PAFA 251739Z 2518/2624 VRB03KT P6SM VCSH BKN090 FM252100 25010KT P6SM SCT080 BKN200 FM260800 24004KT P6SM SCT080
Observation time: 65 min. ago
Need help? Read our tutorial on how to read TAFs or read the parsed version below.

Parsed version of TAF for Fairbanks International Airport (PAFA)

  • From 25 May at 18:00 UTC, to day 26 of the month at 24:00 UTC
  • Clouds: Broken sky at 2743 meters
  • Wind: Variable at 3
  • Other: In the vicinity, showers of
  • From day 25 of the month at 21:00 UTC
  • Clouds: Scattered at 2438 meters; broken sky at 6096 meters
  • Wind: 250 degrees at 10
  • From day 26 of the month at 08:00 UTC
  • Clouds: Scattered at 2438 meters
  • Wind: 240 degrees at 4